Time;durP1;ratioP1;P1;durP2;ratioP2;P2;SDS_P1;SDS_P2;PMS_P1;PMS_P2;Temp;Humidity;BMP_temperature;BMP_pressure;BME280_temperature;BME280_humidity;BME280_pressure;Samples;Min_cycle;Max_cycle;Signal;HPM_P1;HPM_P2
2022/10/10 00:01:15;;;;;;;8.40;1.80;;;19.80;99.90;;;;;;5090860;28;20185;-72
2022/10/10 00:03:43;;;;;;;6.97;1.90;;;19.60;99.90;;;;;;5090228;28;20201;-69
2022/10/10 00:06:11;;;;;;;5.30;1.70;;;19.30;99.90;;;;;;5090543;28;20183;-70
2022/10/10 00:08:39;;;;;;;9.67;1.90;;;19.10;99.90;;;;;;5091330;28;20653;-72
2022/10/10 00:11:07;;;;;;;4.40;1.37;;;19.40;99.90;;;;;;5073379;28;20183;-70
2022/10/10 00:13:34;;;;;;;7.17;1.70;;;20.10;99.90;;;;;;5089980;28;20276;-68
2022/10/10 00:16:03;;;;;;;9.90;1.93;;;20.40;99.90;;;;;;5092420;28;20167;-69
2022/10/10 00:18:31;;;;;;;6.20;1.57;;;20.70;99.90;;;;;;5094162;28;20180;-70
2022/10/10 00:20:58;;;;;;;4.47;1.40;;;20.50;99.90;;;;;;5094768;28;20178;-73
2022/10/10 00:23:26;;;;;;;9.27;1.80;;;20.40;99.90;;;;;;5094207;28;20187;-71
2022/10/10 00:25:53;;;;;;;7.93;1.50;;;20.60;99.90;;;;;;5094862;28;20245;-72
2022/10/10 00:28:21;;;;;;;7.87;1.50;;;21.40;99.90;;;;;;5091489;28;20211;-71
2022/10/10 00:30:48;;;;;;;7.63;1.50;;;22.20;99.90;;;;;;5092653;28;20251;-68
2022/10/10 00:33:16;;;;;;;5.20;1.20;;;23.00;99.90;;;;;;5092157;28;20188;-67
2022/10/10 00:35:43;;;;;;;4.50;1.43;;;23.70;99.90;;;;;;5094546;28;20599;-71
2022/10/10 00:38:12;;;;;;;8.33;1.50;;;23.10;99.90;;;;;;5090963;28;20211;-69
2022/10/10 00:40:48;;;;;;;8.97;1.40;;;22.40;99.90;;;;;;5094518;28;20659;-72
2022/10/10 00:43:18;;;;;;;13.13;1.93;;;22.60;99.90;;;;;;5086876;28;20194;-72
2022/10/10 00:45:46;;;;;;;6.70;1.60;;;22.30;99.90;;;;;;5067489;28;20175;-69
2022/10/10 00:48:36;;;;;;;6.40;1.67;;;21.60;99.90;;;;;;5081721;28;20221;-71
2022/10/10 00:51:11;;;;;;;7.17;1.63;;;20.90;99.90;;;;;;5085938;28;20187;-69
2022/10/10 00:53:43;;;;;;;6.80;1.50;;;20.80;99.90;;;;;;5085335;28;20181;-72
2022/10/10 00:56:13;;;;;;;6.40;1.27;;;20.90;99.90;;;;;;5080366;28;20176;-70
2022/10/10 00:58:45;;;;;;;7.90;1.30;;;21.40;99.90;;;;;;5074176;28;20700;-71
2022/10/10 01:01:13;;;;;;;8.63;1.30;;;22.00;99.90;;;;;;5094136;28;20187;-69
2022/10/10 01:03:40;;;;;;;9.20;1.57;;;22.60;99.90;;;;;;5094438;28;20181;-69
2022/10/10 01:06:08;;;;;;;11.43;1.63;;;23.10;99.90;;;;;;5094573;28;20541;-69
2022/10/10 01:08:36;;;;;;;5.93;1.40;;;22.90;99.90;;;;;;5086150;28;20687;-69
2022/10/10 01:11:47;;;;;;;4.23;1.33;;;22.90;99.90;;;;;;5094411;28;20213;-69
2022/10/10 01:14:42;;;;;;;8.63;2.03;;;22.90;99.90;;;;;;5094237;28;20658;-71
2022/10/10 01:17:13;;;;;;;6.37;1.47;;;23.20;99.90;;;;;;5094341;28;20175;-71
2022/10/10 01:20:18;;;;;;;4.53;1.40;;;22.20;99.90;;;;;;5080426;28;20176;-72
2022/10/10 01:23:02;;;;;;;5.77;1.00;;;21.50;99.90;;;;;;5047004;28;20592;-70
2022/10/10 01:25:47;;;;;;;4.67;1.57;;;21.20;99.90;;;;;;5074465;28;20333;-72
2022/10/10 01:28:43;;;;;;;6.37;1.30;;;21.30;99.90;;;;;;5091274;28;20208;-71
2022/10/10 01:31:13;;;;;;;5.87;1.30;;;21.80;99.90;;;;;;5073785;28;20176;-70
2022/10/10 01:33:58;;;;;;;6.73;1.23;;;22.50;99.90;;;;;;5073892;28;20175;-71
2022/10/10 01:36:59;;;;;;;5.87;1.10;;;22.70;99.90;;;;;;5090020;28;20593;-70
2022/10/10 01:39:40;;;;;;;5.60;1.13;;;23.90;99.90;;;;;;5081470;28;20660;-71
2022/10/10 01:42:41;;;;;;;6.77;1.37;;;23.40;99.90;;;;;;5093806;28;20170;-73
2022/10/10 01:45:09;;;;;;;7.83;2.10;;;22.60;99.90;;;;;;5070261;28;20188;-73
2022/10/10 01:47:37;;;;;;;2.30;1.07;;;22.10;99.90;;;;;;5068303;28;20332;-71
2022/10/10 01:50:14;;;;;;;9.20;1.40;;;21.40;99.90;;;;;;5073322;28;20172;-71
2022/10/10 01:52:50;;;;;;;4.00;1.23;;;21.10;99.90;;;;;;5073421;28;20177;-71
2022/10/10 01:55:50;;;;;;;3.07;1.20;;;21.30;99.90;;;;;;5073093;28;20263;-71
2022/10/10 01:58:52;;;;;;;4.03;1.20;;;20.70;99.90;;;;;;5022874;28;20241;-71
2022/10/10 02:01:52;;;;;;;3.80;1.57;;;20.30;99.90;;;;;;5022238;28;20694;-70
2022/10/10 02:04:32;;;;;;;7.37;1.30;;;20.10;99.90;;;;;;5049846;28;20189;-71
2022/10/10 02:07:14;;;;;;;9.17;1.80;;;19.80;99.90;;;;;;5061075;28;20175;-71
2022/10/10 02:09:43;;;;;;;5.20;1.13;;;19.60;99.90;;;;;;5057726;28;20190;-71
2022/10/10 02:12:13;;;;;;;7.37;1.60;;;19.60;99.90;;;;;;5073152;28;20176;-72
2022/10/10 02:14:50;;;;;;;5.03;1.30;;;19.60;99.90;;;;;;5072820;28;20322;-71
2022/10/10 02:17:22;;;;;;;4.13;1.40;;;19.50;99.90;;;;;;5072725;28;20283;-71
2022/10/10 02:19:53;;;;;;;10.07;2.20;;;19.10;99.90;;;;;;5061049;28;20184;-71
2022/10/10 02:22:23;;;;;;;5.63;1.20;;;19.00;99.90;;;;;;5060145;28;20227;-71
2022/10/10 02:24:52;;;;;;;3.13;1.10;;;18.90;99.90;;;;;;5070277;28;20246;-73
2022/10/10 02:27:53;;;;;;;9.07;1.40;;;18.90;99.90;;;;;;5070801;28;20212;-70
2022/10/10 02:30:21;;;;;;;7.43;1.20;;;18.90;99.90;;;;;;5050532;28;20193;-71
2022/10/10 02:32:54;;;;;;;4.80;1.30;;;18.70;99.90;;;;;;5051279;28;20565;-70
2022/10/10 02:35:32;;;;;;;6.27;1.93;;;18.60;99.90;;;;;;5066740;28;20615;-72
2022/10/10 02:38:02;;;;;;;5.27;1.93;;;18.60;99.90;;;;;;5072058;28;20175;-73
2022/10/10 02:40:32;;;;;;;3.43;1.37;;;18.60;99.90;;;;;;5071577;28;20171;-73
2022/10/10 02:43:02;;;;;;;3.60;1.20;;;18.80;99.90;;;;;;5072344;28;20622;-74
2022/10/10 02:45:32;;;;;;;3.77;1.50;;;18.70;99.90;;;;;;5072274;28;20188;-71
2022/10/10 02:48:01;;;;;;;5.40;1.57;;;19.00;99.90;;;;;;5072015;28;20224;-75
2022/10/10 02:50:30;;;;;;;7.20;1.97;;;18.90;99.90;;;;;;5070988;28;20179;-75
2022/10/10 02:52:58;;;;;;;6.23;1.40;;;18.90;99.90;;;;;;5070567;28;20184;-71
2022/10/10 02:55:26;;;;;;;3.80;0.93;;;18.80;99.90;;;;;;5072177;28;20182;-76
2022/10/10 02:57:54;;;;;;;11.50;1.47;;;19.00;99.90;;;;;;5072016;28;20294;-75
2022/10/10 03:00:22;;;;;;;2.80;1.20;;;19.00;99.90;;;;;;5081962;28;20233;-71
2022/10/10 03:02:49;;;;;;;7.10;1.50;;;19.00;99.90;;;;;;5074697;28;20180;-70
2022/10/10 03:05:17;;;;;;;8.77;1.77;;;19.00;99.90;;;;;;5082380;28;20178;-75
2022/10/10 03:07:44;;;;;;;5.53;1.60;;;19.10;99.90;;;;;;5092006;28;20206;-71
2022/10/10 03:10:11;;;;;;;7.07;1.63;;;19.20;99.90;;;;;;5091996;28;20172;-72
2022/10/10 03:12:39;;;;;;;3.50;1.40;;;19.70;99.90;;;;;;5076216;28;20211;-72
2022/10/10 03:15:07;;;;;;;5.27;1.27;;;20.30;99.90;;;;;;5074472;28;20556;-72
2022/10/10 03:17:34;;;;;;;5.50;1.17;;;20.90;99.90;;;;;;5091510;28;20189;-74
2022/10/10 03:20:02;;;;;;;3.33;1.00;;;21.20;99.90;;;;;;5083349;28;20578;-72
2022/10/10 03:22:30;;;;;;;9.37;1.40;;;21.20;99.90;;;;;;5079477;28;20186;-72
2022/10/10 03:24:57;;;;;;;5.13;1.20;;;21.20;99.90;;;;;;5091803;28;20180;-72
2022/10/10 03:27:24;;;;;;;4.80;1.07;;;21.10;99.90;;;;;;5091023;28;20214;-71
2022/10/10 03:29:52;;;;;;;4.83;1.53;;;20.50;99.90;;;;;;5092216;28;20175;-71
2022/10/10 03:32:20;;;;;;;5.23;1.20;;;19.70;99.90;;;;;;5086205;28;20660;-71
2022/10/10 03:34:47;;;;;;;2.20;1.00;;;19.40;99.90;;;;;;5071921;28;20175;-72
2022/10/10 03:37:14;;;;;;;4.43;1.07;;;19.40;99.90;;;;;;5071339;28;20177;-71
2022/10/10 03:39:42;;;;;;;8.27;1.40;;;19.60;99.90;;;;;;5071497;28;20688;-70
2022/10/10 03:42:09;;;;;;;3.53;0.90;;;19.80;99.90;;;;;;5086166;28;20179;-75
2022/10/10 03:44:37;;;;;;;5.87;1.23;;;19.80;99.90;;;;;;5091784;28;20179;-72
2022/10/10 03:47:04;;;;;;;5.20;1.07;;;20.00;99.90;;;;;;5091612;28;20232;-73
2022/10/10 03:49:32;;;;;;;8.27;1.47;;;19.50;99.90;;;;;;5093501;28;20262;-74
2022/10/10 03:52:00;;;;;;;2.50;1.20;;;19.40;99.90;;;;;;5082658;28;20188;-72
2022/10/10 03:54:27;;;;;;;5.53;1.10;;;19.60;99.90;;;;;;5075591;28;20258;-72
2022/10/10 03:56:55;;;;;;;9.23;1.57;;;19.80;99.90;;;;;;5078492;28;20232;-72
2022/10/10 03:59:22;;;;;;;9.47;1.80;;;19.70;99.90;;;;;;5093361;28;21488;-72
2022/10/10 04:01:49;;;;;;;4.83;1.43;;;19.60;99.90;;;;;;5085054;28;20589;-77
2022/10/10 04:04:17;;;;;;;9.50;1.30;;;19.60;99.90;;;;;;5075262;28;20212;-72
2022/10/10 04:06:44;;;;;;;5.60;1.40;;;19.60;99.90;;;;;;5057310;28;20191;-72
2022/10/10 04:09:12;;;;;;;3.53;1.43;;;19.70;99.90;;;;;;5083923;28;20662;-72
2022/10/10 04:11:39;;;;;;;6.40;1.70;;;19.50;99.90;;;;;;5085796;28;20189;-71
2022/10/10 04:14:07;;;;;;;4.70;1.20;;;19.60;99.90;;;;;;5083320;28;20236;-72
2022/10/10 04:16:34;;;;;;;8.30;1.83;;;19.30;99.90;;;;;;5095496;28;20524;-73
2022/10/10 04:19:01;;;;;;;6.07;1.30;;;19.40;99.90;;;;;;5094543;28;20750;-73
2022/10/10 04:21:29;;;;;;;10.80;1.60;;;19.30;99.90;;;;;;5086966;28;20317;-72
2022/10/10 04:23:56;;;;;;;12.10;1.53;;;19.20;99.90;;;;;;5075029;28;20181;-74
2022/10/10 04:26:24;;;;;;;6.13;1.23;;;19.20;99.90;;;;;;5075046;28;20607;-72
2022/10/10 04:28:51;;;;;;;9.40;1.70;;;19.10;99.90;;;;;;5074615;28;20555;-73
2022/10/10 04:31:19;;;;;;;4.97;1.50;;;18.90;99.90;;;;;;5088403;28;20179;-71
2022/10/10 04:33:46;;;;;;;8.03;1.33;;;18.80;99.90;;;;;;5084113;28;20301;-74
2022/10/10 04:36:13;;;;;;;5.13;1.30;;;18.80;99.90;;;;;;5095070;28;20187;-76
2022/10/10 04:38:42;;;;;;;4.33;1.37;;;18.60;99.90;;;;;;5094571;28;20179;-75
2022/10/10 04:41:09;;;;;;;7.13;1.50;;;18.40;99.90;;;;;;5089787;28;20548;-74
2022/10/10 04:43:37;;;;;;;4.20;1.30;;;18.50;99.90;;;;;;5075116;28;20172;-74
2022/10/10 04:46:04;;;;;;;6.37;1.20;;;18.50;99.90;;;;;;5075544;28;20199;-74
2022/10/10 04:48:31;;;;;;;4.43;1.40;;;19.10;99.90;;;;;;5074355;28;20720;-74
2022/10/10 04:50:59;;;;;;;5.03;1.20;;;19.50;99.90;;;;;;5083001;28;20643;-74
2022/10/10 04:53:27;;;;;;;8.60;1.47;;;19.20;99.90;;;;;;5080956;28;20315;-73
2022/10/10 04:55:55;;;;;;;4.67;1.20;;;19.30;99.90;;;;;;5093974;28;20190;-71
2022/10/10 04:58:22;;;;;;;7.30;1.53;;;19.20;99.90;;;;;;5091953;28;20195;-72
2022/10/10 05:00:56;;;;;;;3.93;1.67;;;19.20;99.90;;;;;;5093782;28;20227;-72
2022/10/10 05:03:24;;;;;;;5.07;1.20;;;19.30;99.90;;;;;;5094470;28;20552;-71
2022/10/10 05:05:52;;;;;;;2.30;0.87;;;19.30;99.90;;;;;;5094257;28;20208;-71
2022/10/10 05:08:20;;;;;;;4.60;1.20;;;18.90;99.90;;;;;;5094291;28;20675;-72
2022/10/10 05:10:48;;;;;;;5.47;1.40;;;18.90;99.90;;;;;;5076009;28;20179;-72
2022/10/10 05:13:16;;;;;;;6.63;1.47;;;18.90;99.90;;;;;;5076159;28;20192;-72
2022/10/10 05:15:43;;;;;;;8.40;1.60;;;18.80;99.90;;;;;;5080124;28;20175;-72
2022/10/10 05:18:11;;;;;;;6.23;1.30;;;18.80;99.90;;;;;;5094220;28;20244;-73
2022/10/10 05:20:39;;;;;;;5.87;1.67;;;18.80;99.90;;;;;;5058150;28;20286;-73
2022/10/10 05:23:06;;;;;;;5.87;1.80;;;18.60;99.90;;;;;;5073959;28;20206;-73
2022/10/10 05:25:33;;;;;;;3.57;1.07;;;18.50;99.90;;;;;;5073867;28;20277;-73
2022/10/10 05:28:01;;;;;;;4.27;1.27;;;18.40;99.90;;;;;;5073828;28;20219;-73
2022/10/10 05:30:28;;;;;;;5.57;1.20;;;18.20;99.90;;;;;;5089274;28;20250;-72
2022/10/10 05:32:56;;;;;;;5.80;1.40;;;18.20;99.90;;;;;;5094034;28;20249;-73
2022/10/10 05:35:23;;;;;;;4.77;1.47;;;18.00;99.90;;;;;;5093778;28;20614;-72
2022/10/10 05:37:50;;;;;;;5.27;1.40;;;17.80;99.90;;;;;;5088941;28;20187;-72
2022/10/10 05:40:18;;;;;;;5.77;1.40;;;17.70;99.90;;;;;;5093621;28;20235;-73
2022/10/10 05:42:45;;;;;;;9.73;1.60;;;17.40;99.90;;;;;;5075641;28;20179;-72
2022/10/10 05:45:13;;;;;;;5.93;1.67;;;17.30;99.90;;;;;;5093734;28;20202;-72
2022/10/10 05:47:40;;;;;;;3.97;1.20;;;17.20;99.90;;;;;;5087449;28;20202;-72
2022/10/10 05:50:12;;;;;;;5.70;1.20;;;17.20;99.90;;;;;;5073427;28;20533;-72
2022/10/10 05:52:39;;;;;;;4.77;1.10;;;17.20;99.90;;;;;;5055557;28;20180;-73
2022/10/10 05:55:07;;;;;;;4.70;1.30;;;17.20;99.90;;;;;;5083128;28;20179;-74
2022/10/10 05:57:34;;;;;;;4.87;1.27;;;17.20;99.90;;;;;;5073730;28;20772;-72
2022/10/10 06:00:03;;;;;;;5.33;1.33;;;17.20;99.90;;;;;;5092938;28;20704;-73
2022/10/10 06:02:30;;;;;;;7.13;1.60;;;17.20;99.90;;;;;;5092904;28;20183;-71
2022/10/10 06:04:57;;;;;;;5.60;1.30;;;17.30;99.90;;;;;;5091777;28;20232;-72
2022/10/10 06:07:25;;;;;;;11.37;1.80;;;17.40;99.90;;;;;;5092824;28;20195;-73
2022/10/10 06:09:52;;;;;;;5.43;1.30;;;17.30;99.90;;;;;;5092510;28;20194;-70
2022/10/10 06:12:20;;;;;;;7.37;1.17;;;17.20;99.90;;;;;;5089682;28;20190;-70
2022/10/10 06:14:47;;;;;;;9.87;1.40;;;17.10;99.90;;;;;;5091868;28;20186;-71
2022/10/10 06:17:14;;;;;;;11.43;1.70;;;17.00;99.90;;;;;;5092492;28;20187;-71
2022/10/10 06:19:42;;;;;;;8.63;1.70;;;17.10;99.90;;;;;;5073605;28;20554;-71
2022/10/10 06:22:09;;;;;;;8.17;1.87;;;17.00;99.90;;;;;;5092300;28;20640;-72
2022/10/10 06:24:37;;;;;;;8.07;1.40;;;17.00;99.90;;;;;;5092133;28;20186;-72
2022/10/10 06:27:04;;;;;;;6.73;1.80;;;17.10;99.90;;;;;;5073390;28;20183;-72
2022/10/10 06:29:32;;;;;;;6.90;1.40;;;17.10;99.90;;;;;;5088681;28;20679;-72
2022/10/10 06:31:59;;;;;;;7.53;1.70;;;17.20;99.90;;;;;;5092680;28;20179;-73
2022/10/10 06:34:26;;;;;;;4.90;1.43;;;17.30;99.90;;;;;;5092632;28;20347;-72
2022/10/10 06:36:54;;;;;;;6.97;1.47;;;17.20;99.90;;;;;;5091651;28;20227;-73
2022/10/10 06:39:21;;;;;;;8.30;1.63;;;17.20;99.90;;;;;;5080805;28;20180;-73
2022/10/10 06:41:51;;;;;;;3.63;1.10;;;17.10;99.90;;;;;;5080772;28;20557;-73
2022/10/10 06:44:19;;;;;;;5.00;1.10;;;17.00;99.90;;;;;;5092623;28;20182;-73
2022/10/10 06:46:46;;;;;;;6.57;1.30;;;16.90;99.90;;;;;;5092447;28;20175;-72
2022/10/10 06:49:14;;;;;;;8.13;1.40;;;16.80;99.90;;;;;;5072821;28;20648;-72
2022/10/10 06:51:41;;;;;;;3.57;1.17;;;16.70;99.90;;;;;;5088121;28;20186;-72
2022/10/10 06:54:10;;;;;;;4.43;1.10;;;16.60;99.90;;;;;;5092117;28;20209;-73
2022/10/10 06:56:38;;;;;;;9.73;1.73;;;16.60;99.90;;;;;;5091999;28;20258;-72
2022/10/10 06:59:05;;;;;;;5.70;1.80;;;16.60;99.90;;;;;;5091583;28;20219;-73
2022/10/10 07:01:32;;;;;;;3.40;1.27;;;16.50;99.90;;;;;;5090781;28;20176;-72
2022/10/10 07:04:00;;;;;;;5.53;1.60;;;16.60;99.90;;;;;;5091011;28;20202;-72
2022/10/10 07:06:28;;;;;;;3.90;1.40;;;16.60;99.90;;;;;;5074104;28;20178;-72
2022/10/10 07:08:57;;;;;;;3.47;1.30;;;16.60;99.90;;;;;;5079095;28;20310;-72
2022/10/10 07:11:24;;;;;;;3.77;1.57;;;16.60;99.90;;;;;;5071957;28;20188;-71
2022/10/10 07:13:53;;;;;;;7.57;1.57;;;16.50;99.90;;;;;;5071782;28;20276;-72
2022/10/10 07:16:20;;;;;;;6.73;1.57;;;16.50;99.90;;;;;;5085914;28;20656;-72
2022/10/10 07:18:48;;;;;;;4.50;1.30;;;16.50;99.90;;;;;;5091871;28;20178;-72
2022/10/10 07:21:15;;;;;;;7.33;1.37;;;16.50;99.90;;;;;;5081125;28;20183;-72
2022/10/10 07:23:43;;;;;;;6.43;1.60;;;16.40;99.90;;;;;;5071588;28;20168;-72
2022/10/10 07:26:15;;;;;;;8.17;1.40;;;16.50;99.90;;;;;;5071667;28;20172;-72
2022/10/10 07:28:43;;;;;;;7.10;1.37;;;16.50;99.90;;;;;;5071448;28;20207;-73
2022/10/10 07:31:11;;;;;;;14.43;1.93;;;16.40;99.90;;;;;;5071636;28;20541;-73
2022/10/10 07:33:41;;;;;;;8.10;1.63;;;16.40;99.90;;;;;;5071382;28;20183;-72
2022/10/10 07:36:09;;;;;;;8.73;1.73;;;16.30;99.90;;;;;;5075322;28;20186;-72
2022/10/10 07:38:37;;;;;;;6.00;1.83;;;16.30;99.90;;;;;;5086661;28;20218;-72
2022/10/10 07:41:11;;;;;;;5.27;1.50;;;16.20;99.90;;;;;;5087463;28;20225;-73
2022/10/10 07:43:38;;;;;;;5.43;1.60;;;16.20;99.90;;;;;;5073170;28;20683;-73
2022/10/10 07:46:13;;;;;;;3.83;1.87;;;16.10;99.90;;;;;;5091608;28;20210;-73
2022/10/10 07:48:40;;;;;;;10.40;2.27;;;16.10;99.90;;;;;;5091491;28;20214;-73
2022/10/10 07:51:08;;;;;;;5.93;1.70;;;16.00;99.90;;;;;;5091335;28;20550;-72
2022/10/10 07:53:36;;;;;;;5.40;1.60;;;15.90;99.90;;;;;;5090755;28;20628;-71
2022/10/10 07:56:09;;;;;;;8.50;1.47;;;15.90;99.90;;;;;;5087950;28;20183;-71
2022/10/10 07:58:37;;;;;;;6.30;1.90;;;15.80;99.90;;;;;;5069377;28;20277;-72
2022/10/10 08:01:07;;;;;;;7.60;1.73;;;15.80;99.90;;;;;;5090762;28;20247;-73
2022/10/10 08:03:35;;;;;;;11.57;1.90;;;15.80;99.90;;;;;;5090744;28;20226;-72
2022/10/10 08:06:08;;;;;;;8.40;1.90;;;15.70;99.90;;;;;;5089434;28;20647;-73
2022/10/10 08:08:36;;;;;;;10.23;1.60;;;15.70;99.90;;;;;;5091390;28;20626;-72
2022/10/10 08:11:10;;;;;;;5.13;1.80;;;15.60;99.90;;;;;;5091007;28;20656;-73
2022/10/10 08:13:41;;;;;;;7.90;1.73;;;15.50;99.90;;;;;;5087749;28;20645;-73
2022/10/10 08:16:08;;;;;;;6.47;1.70;;;15.50;99.90;;;;;;5090743;28;20186;-72
2022/10/10 08:18:36;;;;;;;10.87;1.80;;;15.40;99.90;;;;;;5090261;28;20244;-73
2022/10/10 08:21:09;;;;;;;8.00;2.00;;;15.40;99.90;;;;;;5091081;28;20175;-72
2022/10/10 08:23:38;;;;;;;5.60;1.73;;;15.20;99.90;;;;;;5091041;28;20184;-72
2022/10/10 08:26:08;;;;;;;4.17;1.50;;;15.20;99.90;;;;;;5075536;28;20178;-71
2022/10/10 08:28:37;;;;;;;6.50;1.80;;;15.10;99.90;;;;;;5075859;28;20226;-72
2022/10/10 08:31:11;;;;;;;6.23;1.80;;;15.00;99.90;;;;;;5092221;28;20629;-72
2022/10/10 08:33:39;;;;;;;5.30;1.80;;;14.90;99.90;;;;;;5092577;28;20200;-70
2022/10/10 08:36:13;;;;;;;8.87;1.80;;;14.90;99.90;;;;;;5095105;28;20182;-71
2022/10/10 08:38:40;;;;;;;9.93;1.80;;;14.90;99.90;;;;;;5096315;28;20177;-71
2022/10/10 08:41:27;;;;;;;4.93;1.43;;;14.80;99.90;;;;;;5096097;28;20170;-72
2022/10/10 08:43:59;;;;;;;6.70;1.50;;;14.70;99.90;;;;;;5096045;28;20182;-72
2022/10/10 08:46:34;;;;;;;3.17;1.53;;;14.70;99.90;;;;;;5096172;28;20190;-72
2022/10/10 08:49:12;;;;;;;9.47;1.77;;;14.60;99.90;;;;;;5096167;28;20202;-72
2022/10/10 08:51:42;;;;;;;8.00;1.57;;;14.70;99.90;;;;;;5096486;28;20179;-73
2022/10/10 08:54:12;;;;;;;6.37;1.83;;;14.70;99.90;;;;;;5096325;28;20225;-71
2022/10/10 08:56:42;;;;;;;3.83;1.80;;;14.70;99.90;;;;;;5096275;28;20183;-71
2022/10/10 08:59:12;;;;;;;7.73;1.80;;;14.70;99.90;;;;;;5080475;28;20576;-71
2022/10/10 09:01:40;;;;;;;10.70;1.50;;;14.80;99.90;;;;;;5100229;28;20175;-72
2022/10/10 09:04:17;;;;;;;4.83;1.47;;;14.70;99.90;;;;;;5096910;28;20214;-71
2022/10/10 09:06:50;;;;;;;6.47;1.90;;;14.70;99.90;;;;;;5095793;28;20636;-72
2022/10/10 09:09:43;;;;;;;11.43;2.00;;;14.60;99.90;;;;;;5077128;28;20262;-71
2022/10/10 09:12:26;;;;;;;7.23;2.03;;;14.50;99.90;;;;;;5057462;28;20507;-72
2022/10/10 09:15:24;;;;;;;6.77;1.80;;;14.40;99.90;;;;;;5075741;28;20217;-72
2022/10/10 09:18:01;;;;;;;5.97;2.07;;;14.30;99.90;;;;;;5075406;28;20225;-71
2022/10/10 09:20:59;;;;;;;4.97;1.77;;;14.40;99.90;;;;;;5092781;28;20204;-72
2022/10/10 09:23:40;;;;;;;4.03;1.60;;;14.30;99.90;;;;;;5094711;28;20225;-72
2022/10/10 09:26:14;;;;;;;5.63;1.73;;;14.40;99.90;;;;;;5090241;28;20679;-72
2022/10/10 09:28:50;;;;;;;9.33;2.30;;;14.40;99.90;;;;;;5075202;28;20216;-72
2022/10/10 09:31:33;;;;;;;4.40;1.60;;;14.50;99.90;;;;;;5075746;28;20172;-72
2022/10/10 09:34:40;;;;;;;3.83;1.70;;;14.50;99.90;;;;;;5060616;28;20184;-73
2022/10/10 09:37:17;;;;;;;5.13;1.83;;;14.50;99.90;;;;;;5072700;28;20278;-72
2022/10/10 09:39:56;;;;;;;6.00;1.80;;;14.50;99.90;;;;;;5087987;28;20277;-72
2022/10/10 09:42:44;;;;;;;9.63;2.20;;;14.60;99.90;;;;;;5077211;28;20172;-72
2022/10/10 09:45:29;;;;;;;4.60;1.87;;;14.50;99.90;;;;;;5095636;28;20178;-73
2022/10/10 09:47:57;;;;;;;10.47;2.03;;;14.60;99.90;;;;;;5093722;28;20200;-72
2022/10/10 09:50:25;;;;;;;3.13;1.80;;;14.60;99.90;;;;;;5094807;28;20171;-73
2022/10/10 09:52:53;;;;;;;5.87;2.00;;;14.60;99.90;;;;;;5077533;28;20179;-73
2022/10/10 09:55:25;;;;;;;4.97;1.90;;;14.60;99.90;;;;;;5074937;28;20203;-72
2022/10/10 09:57:56;;;;;;;10.93;2.10;;;14.60;99.90;;;;;;5075029;28;20520;-73
2022/10/10 10:00:33;;;;;;;4.13;1.90;;;14.60;99.90;;;;;;5090622;28;20227;-72
2022/10/10 10:03:12;;;;;;;7.27;1.93;;;14.60;99.90;;;;;;5095006;28;20636;-72
2022/10/10 10:05:41;;;;;;;7.87;2.07;;;14.50;99.90;;;;;;5094952;28;20176;-72
2022/10/10 10:08:32;;;;;;;6.13;2.23;;;14.50;99.90;;;;;;5094870;28;20288;-71
2022/10/10 10:11:01;;;;;;;4.97;2.03;;;14.50;99.90;;;;;;5087563;28;20190;-72
2022/10/10 10:13:37;;;;;;;4.80;2.27;;;14.40;99.90;;;;;;5094344;28;20167;-73
2022/10/10 10:16:11;;;;;;;7.20;2.33;;;14.40;99.90;;;;;;5093040;28;20217;-73
2022/10/10 10:18:46;;;;;;;6.83;1.90;;;14.30;99.90;;;;;;5100964;28;20206;-73
2022/10/10 10:21:22;;;;;;;7.10;2.03;;;14.30;99.90;;;;;;5092833;28;20248;-71
2022/10/10 10:23:52;;;;;;;6.50;1.87;;;14.20;99.90;;;;;;5091712;28;20179;-72
2022/10/10 10:26:22;;;;;;;5.90;2.00;;;14.20;99.90;;;;;;5093389;28;20183;-71
2022/10/10 10:28:51;;;;;;;6.43;2.43;;;14.10;99.90;;;;;;5091178;28;20227;-72
2022/10/10 10:31:29;;;;;;;7.17;2.53;;;14.10;99.90;;;;;;5094176;28;20715;-72
2022/10/10 10:34:16;;;;;;;7.77;2.23;;;14.10;99.90;;;;;;5076121;28;20582;-71
2022/10/10 10:36:52;;;;;;;4.47;2.10;;;14.20;99.90;;;;;;5081747;28;20235;-71
2022/10/10 10:39:27;;;;;;;7.63;2.27;;;14.20;99.90;;;;;;5074098;28;20176;-72
2022/10/10 10:42:16;;;;;;;7.13;2.13;;;14.30;99.90;;;;;;5074492;28;20187;-72
2022/10/10 10:45:04;;;;;;;5.90;2.13;;;14.30;99.90;;;;;;5056005;28;20184;-72
2022/10/10 10:48:01;;;;;;;6.07;2.20;;;14.30;99.90;;;;;;5060639;28;20251;-73
2022/10/10 10:50:28;;;;;;;9.17;2.20;;;14.40;99.90;;;;;;5074314;28;20266;-70
2022/10/10 10:52:58;;;;;;;7.90;2.70;;;14.40;99.90;;;;;;5073606;28;20714;-72
2022/10/10 10:55:28;;;;;;;6.70;2.50;;;14.40;99.90;;;;;;5073775;28;20566;-71
2022/10/10 10:58:25;;;;;;;10.10;3.03;;;14.40;99.90;;;;;;5087085;28;20183;-71
2022/10/10 11:01:11;;;;;;;9.40;2.53;;;14.40;99.90;;;;;;5093570;28;20242;-71
2022/10/10 11:03:47;;;;;;;6.77;2.40;;;14.40;99.90;;;;;;5093947;28;20175;-72
2022/10/10 11:06:18;;;;;;;6.73;2.40;;;14.40;99.90;;;;;;5094482;28;20179;-71
2022/10/10 11:08:54;;;;;;;6.50;2.03;;;14.40;99.90;;;;;;5076121;28;20292;-70
2022/10/10 11:11:33;;;;;;;4.57;2.00;;;14.40;99.90;;;;;;5076160;28;20186;-71
2022/10/10 11:14:14;;;;;;;7.33;2.17;;;14.40;99.90;;;;;;5081871;28;20347;-71
2022/10/10 11:16:50;;;;;;;8.30;2.40;;;14.40;99.90;;;;;;5093495;28;20174;-70
2022/10/10 11:19:34;;;;;;;12.80;2.43;;;14.40;99.90;;;;;;5073371;28;20676;-71
2022/10/10 11:22:18;;;;;;;6.23;2.27;;;14.50;99.90;;;;;;5074135;28;20246;-71
2022/10/10 11:25:06;;;;;;;9.53;2.80;;;14.50;99.90;;;;;;5091622;28;20182;-71
2022/10/10 11:27:42;;;;;;;6.03;2.07;;;14.60;99.90;;;;;;5086360;28;20198;-72
2022/10/10 11:30:28;;;;;;;6.43;2.30;;;14.60;99.90;;;;;;5075429;28;20172;-73
2022/10/10 11:33:10;;;;;;;6.87;2.27;;;14.50;99.90;;;;;;5091915;28;20271;-71
2022/10/10 11:35:56;;;;;;;7.03;2.57;;;14.60;99.90;;;;;;5093608;28;20652;-70
2022/10/10 11:38:29;;;;;;;10.40;2.80;;;14.60;99.90;;;;;;5091320;28;20536;-70
2022/10/10 11:41:06;;;;;;;5.90;2.57;;;14.50;99.90;;;;;;5074075;28;20180;-71
2022/10/10 11:43:37;;;;;;;7.27;2.70;;;14.50;99.90;;;;;;5055227;28;20633;-72
2022/10/10 11:46:27;;;;;;;9.70;2.30;;;14.50;99.90;;;;;;5057989;28;20187;-71
2022/10/10 11:49:08;;;;;;;6.70;2.27;;;14.50;99.90;;;;;;5059527;28;20658;-72
2022/10/10 11:51:46;;;;;;;7.90;2.03;;;14.50;99.90;;;;;;5073275;28;20220;-71
2022/10/10 11:54:28;;;;;;;6.10;2.57;;;14.50;99.90;;;;;;5073243;28;20172;-70
2022/10/10 11:57:02;;;;;;;12.17;3.30;;;14.50;99.90;;;;;;5073058;28;20267;-71
2022/10/10 11:59:56;;;;;;;5.07;2.60;;;14.50;99.90;;;;;;5091737;28;20264;-72
2022/10/10 12:02:33;;;;;;;5.67;2.13;;;14.50;99.90;;;;;;5064963;28;20580;-71
2022/10/10 12:05:04;;;;;;;8.10;2.10;;;14.40;99.90;;;;;;5093078;28;20186;-72
2022/10/10 12:07:49;;;;;;;6.33;2.50;;;14.40;99.90;;;;;;5085493;28;20235;-72
2022/10/10 12:10:32;;;;;;;6.67;2.60;;;14.40;99.90;;;;;;5074382;28;20179;-72
2022/10/10 12:13:25;;;;;;;6.80;3.10;;;14.40;99.90;;;;;;5077273;28;20175;-72
2022/10/10 12:15:55;;;;;;;7.90;2.90;;;14.30;99.90;;;;;;5076769;28;20198;-72
2022/10/10 12:18:48;;;;;;;5.80;2.57;;;14.30;99.90;;;;;;5088911;28;20214;-72
2022/10/10 12:21:22;;;;;;;5.10;2.40;;;14.20;99.90;;;;;;5035163;28;20649;-72
2022/10/10 12:24:09;;;;;;;7.33;2.50;;;14.20;99.90;;;;;;5076246;28;20187;-72
2022/10/10 12:26:54;;;;;;;6.80;2.87;;;14.20;99.90;;;;;;5076385;28;20180;-72
2022/10/10 12:30:07;;;;;;;8.77;2.73;;;14.10;99.90;;;;;;5064449;28;20272;-71
2022/10/10 12:32:41;;;;;;;11.40;2.53;;;14.10;99.90;;;;;;5073218;28;20297;-72
2022/10/10 12:35:32;;;;;;;10.70;2.80;;;14.00;99.90;;;;;;5096762;28;20166;-71
2022/10/10 12:38:06;;;;;;;8.60;2.87;;;14.00;99.90;;;;;;5096611;28;20171;-71
2022/10/10 12:40:34;;;;;;;5.93;2.47;;;13.90;99.90;;;;;;5096364;28;20539;-72
2022/10/10 12:43:23;;;;;;;11.23;2.57;;;13.90;99.90;;;;;;5096432;28;20179;-71
2022/10/10 12:46:07;;;;;;;10.10;2.50;;;13.90;99.90;;;;;;5096661;28;20183;-70
2022/10/10 12:48:35;;;;;;;10.03;2.87;;;13.90;99.90;;;;;;5096376;28;20219;-71
2022/10/10 12:51:02;;;;;;;7.70;3.07;;;13.90;99.90;;;;;;5096645;28;20178;-71
2022/10/10 12:53:32;;;;;;;7.37;2.90;;;13.90;99.90;;;;;;5096529;28;20182;-72
2022/10/10 12:56:02;;;;;;;5.17;2.50;;;14.00;99.90;;;;;;5096643;28;20577;-70
2022/10/10 12:58:40;;;;;;;8.33;2.57;;;14.00;99.90;;;;;;5096169;28;20167;-72
2022/10/10 13:01:25;;;;;;;7.07;2.23;;;14.00;99.90;;;;;;5096364;28;20187;-71
2022/10/10 13:03:55;;;;;;;6.37;2.77;;;14.00;99.90;;;;;;5096055;28;20593;-73
2022/10/10 13:06:33;;;;;;;6.93;2.73;;;14.00;99.90;;;;;;5096215;28;20186;-72
2022/10/10 13:09:03;;;;;;;3.83;2.37;;;14.00;99.90;;;;;;5096139;28;20614;-72
2022/10/10 13:11:30;;;;;;;9.80;2.37;;;14.00;99.90;;;;;;5096226;28;20280;-71
2022/10/10 13:13:58;;;;;;;9.13;2.30;;;13.90;99.90;;;;;;5096256;28;20729;-71
2022/10/10 13:16:28;;;;;;;6.53;2.20;;;13.90;99.90;;;;;;5096035;28;20202;-70